Shady Grove, Pennsylvania
Current Conditions -  °F | °C
As of 7:53 AM on Tuesday 21 Oct 2014 (Local Time) from KHGR Reporting Station
Scattered Clouds Scattered Clouds  
Wind Chill: 50°   Ceiling: Unl
Heat Index: 50°   Visibility: 10mi
Dew Point: 47°   Wind: 5mph
Humidity: 89%   Direction: 180°S
Pressure: 29.86"   Gusts: NA
Location:  39.78°N, 77.67°W
Report Text: KHGR 211153Z 18004KT 10SM SCT044 10/08 A2986 RMK AO2 SLP120 60000 T01000083 10117 20100 53002
Loading
Personal Weather Stations






























Interactive Weather Map
Tropical Storm Tracking
New forecast layout! Learn more

10-Day Weather Forecast

Advertisements
Track Severe Weather on mobile